sensor_id;sensor_type;location;lat;lon;timestamp;temperature;humidity
22469;DHT22;11401;50.792;4.352;2023-03-23T00:01:26;17.80;59.80
22469;DHT22;11401;50.792;4.352;2023-03-23T00:03:56;17.80;59.40
22469;DHT22;11401;50.792;4.352;2023-03-23T00:06:27;17.80;59.70
22469;DHT22;11401;50.792;4.352;2023-03-23T00:08:54;17.90;59.60
22469;DHT22;11401;50.792;4.352;2023-03-23T00:11:28;17.90;59.40
22469;DHT22;11401;50.792;4.352;2023-03-23T00:13:56;17.70;60.00
22469;DHT22;11401;50.792;4.352;2023-03-23T00:16:25;17.70;60.10
22469;DHT22;11401;50.792;4.352;2023-03-23T00:19:00;17.70;59.90
22469;DHT22;11401;50.792;4.352;2023-03-23T00:21:29;17.70;59.70
22469;DHT22;11401;50.792;4.352;2023-03-23T00:24:03;17.60;59.80
22469;DHT22;11401;50.792;4.352;2023-03-23T00:26:30;17.60;60.80
22469;DHT22;11401;50.792;4.352;2023-03-23T00:29:08;17.60;60.20
22469;DHT22;11401;50.792;4.352;2023-03-23T00:31:35;17.60;60.30
22469;DHT22;11401;50.792;4.352;2023-03-23T00:34:03;17.60;60.30
22469;DHT22;11401;50.792;4.352;2023-03-23T00:36:33;17.70;60.50
22469;DHT22;11401;50.792;4.352;2023-03-23T00:39:03;17.80;60.10
22469;DHT22;11401;50.792;4.352;2023-03-23T00:41:30;17.90;59.70
22469;DHT22;11401;50.792;4.352;2023-03-23T00:43:57;17.90;59.50
22469;DHT22;11401;50.792;4.352;2023-03-23T00:46:27;17.80;59.70
22469;DHT22;11401;50.792;4.352;2023-03-23T00:48:55;17.80;59.60
22469;DHT22;11401;50.792;4.352;2023-03-23T00:51:23;17.80;59.60
22469;DHT22;11401;50.792;4.352;2023-03-23T00:53:50;17.80;59.70
22469;DHT22;11401;50.792;4.352;2023-03-23T00:56:16;17.70;59.90
22469;DHT22;11401;50.792;4.352;2023-03-23T00:58:42;17.70;59.80
22469;DHT22;11401;50.792;4.352;2023-03-23T01:01:08;17.70;60.20
22469;DHT22;11401;50.792;4.352;2023-03-23T01:03:35;17.70;60.10
22469;DHT22;11401;50.792;4.352;2023-03-23T01:06:07;17.80;60.00
22469;DHT22;11401;50.792;4.352;2023-03-23T01:08:34;17.90;59.80
22469;DHT22;11401;50.792;4.352;2023-03-23T01:11:06;18.00;59.50
22469;DHT22;11401;50.792;4.352;2023-03-23T01:13:33;17.90;59.50
22469;DHT22;11401;50.792;4.352;2023-03-23T01:15:58;17.80;59.60
22469;DHT22;11401;50.792;4.352;2023-03-23T01:18:25;17.90;59.60
22469;DHT22;11401;50.792;4.352;2023-03-23T01:20:51;17.80;59.60
22469;DHT22;11401;50.792;4.352;2023-03-23T01:23:17;17.90;59.80
22469;DHT22;11401;50.792;4.352;2023-03-23T01:25:43;17.90;59.50
22469;DHT22;11401;50.792;4.352;2023-03-23T01:28:11;17.90;59.60
22469;DHT22;11401;50.792;4.352;2023-03-23T01:30:37;17.90;59.50
22469;DHT22;11401;50.792;4.352;2023-03-23T01:33:03;17.70;59.40
22469;DHT22;11401;50.792;4.352;2023-03-23T01:35:29;17.60;60.00
22469;DHT22;11401;50.792;4.352;2023-03-23T01:37:55;17.70;60.00
22469;DHT22;11401;50.792;4.352;2023-03-23T01:40:21;17.70;59.80
22469;DHT22;11401;50.792;4.352;2023-03-23T01:42:47;17.70;60.00
22469;DHT22;11401;50.792;4.352;2023-03-23T01:48:03;17.70;59.90
22469;DHT22;11401;50.792;4.352;2023-03-23T01:50:34;17.80;59.80
22469;DHT22;11401;50.792;4.352;2023-03-23T01:53:05;17.80;59.80
22469;DHT22;11401;50.792;4.352;2023-03-23T01:55:36;17.80;59.60
22469;DHT22;11401;50.792;4.352;2023-03-23T01:58:04;17.90;59.80
22469;DHT22;11401;50.792;4.352;2023-03-23T02:00:31;17.90;59.50
22469;DHT22;11401;50.792;4.352;2023-03-23T02:03:00;17.90;59.50
22469;DHT22;11401;50.792;4.352;2023-03-23T02:05:34;18.00;59.80
22469;DHT22;11401;50.792;4.352;2023-03-23T02:08:10;18.00;59.70
22469;DHT22;11401;50.792;4.352;2023-03-23T02:10:38;18.00;59.60
22469;DHT22;11401;50.792;4.352;2023-03-23T02:13:07;18.00;59.30
22469;DHT22;11401;50.792;4.352;2023-03-23T02:18:37;18.00;58.90
22469;DHT22;11401;50.792;4.352;2023-03-23T02:21:13;17.90;58.70
22469;DHT22;11401;50.792;4.352;2023-03-23T02:32:34;18.00;59.20
22469;DHT22;11401;50.792;4.352;2023-03-23T02:35:34;18.00;58.50
22469;DHT22;11401;50.792;4.352;2023-03-23T02:38:08;18.00;58.80
22469;DHT22;11401;50.792;4.352;2023-03-23T02:40:46;17.90;58.80
22469;DHT22;11401;50.792;4.352;2023-03-23T02:43:17;17.90;59.10
22469;DHT22;11401;50.792;4.352;2023-03-23T02:45:45;17.80;58.50
22469;DHT22;11401;50.792;4.352;2023-03-23T02:48:14;17.80;58.90
22469;DHT22;11401;50.792;4.352;2023-03-23T02:50:45;17.80;59.50
22469;DHT22;11401;50.792;4.352;2023-03-23T02:53:14;17.90;59.00
22469;DHT22;11401;50.792;4.352;2023-03-23T02:55:43;18.00;59.90
22469;DHT22;11401;50.792;4.352;2023-03-23T02:58:15;18.00;59.20
22469;DHT22;11401;50.792;4.352;2023-03-23T03:00:44;18.00;59.10
22469;DHT22;11401;50.792;4.352;2023-03-23T03:03:13;18.00;59.20
22469;DHT22;11401;50.792;4.352;2023-03-23T03:06:11;18.10;59.20
22469;DHT22;11401;50.792;4.352;2023-03-23T03:11:15;18.10;58.60
22469;DHT22;11401;50.792;4.352;2023-03-23T03:13:49;18.00;58.10
22469;DHT22;11401;50.792;4.352;2023-03-23T03:16:24;18.00;58.50
22469;DHT22;11401;50.792;4.352;2023-03-23T03:21:21;18.00;59.10
22469;DHT22;11401;50.792;4.352;2023-03-23T03:23:55;17.90;58.40
22469;DHT22;11401;50.792;4.352;2023-03-23T03:26:26;17.80;59.20
22469;DHT22;11401;50.792;4.352;2023-03-23T03:28:57;17.80;59.20
22469;DHT22;11401;50.792;4.352;2023-03-23T03:31:28;17.90;58.80
22469;DHT22;11401;50.792;4.352;2023-03-23T03:33:55;18.00;58.70
22469;DHT22;11401;50.792;4.352;2023-03-23T03:36:28;18.00;58.00
22469;DHT22;11401;50.792;4.352;2023-03-23T03:39:04;18.00;58.10
22469;DHT22;11401;50.792;4.352;2023-03-23T03:41:31;18.10;58.00
22469;DHT22;11401;50.792;4.352;2023-03-23T03:43:57;18.10;57.80
22469;DHT22;11401;50.792;4.352;2023-03-23T03:46:23;18.00;57.90
22469;DHT22;11401;50.792;4.352;2023-03-23T03:48:53;17.90;59.00
22469;DHT22;11401;50.792;4.352;2023-03-23T03:51:20;18.00;58.90
22469;DHT22;11401;50.792;4.352;2023-03-23T03:53:49;18.00;58.30
22469;DHT22;11401;50.792;4.352;2023-03-23T03:56:16;18.00;58.50
22469;DHT22;11401;50.792;4.352;2023-03-23T03:58:50;17.90;58.10
22469;DHT22;11401;50.792;4.352;2023-03-23T04:01:34;18.00;58.80
22469;DHT22;11401;50.792;4.352;2023-03-23T04:04:00;18.00;58.20
22469;DHT22;11401;50.792;4.352;2023-03-23T04:06:31;18.00;58.80
22469;DHT22;11401;50.792;4.352;2023-03-23T04:08:59;17.80;58.10
22469;DHT22;11401;50.792;4.352;2023-03-23T04:11:27;17.80;58.10
22469;DHT22;11401;50.792;4.352;2023-03-23T04:14:00;17.80;58.30
22469;DHT22;11401;50.792;4.352;2023-03-23T04:16:35;17.80;58.10
22469;DHT22;11401;50.792;4.352;2023-03-23T04:19:02;17.80;59.00
22469;DHT22;11401;50.792;4.352;2023-03-23T04:21:28;17.70;58.20
22469;DHT22;11401;50.792;4.352;2023-03-23T04:23:56;17.70;59.00
22469;DHT22;11401;50.792;4.352;2023-03-23T04:26:28;17.70;59.00
22469;DHT22;11401;50.792;4.352;2023-03-23T04:29:00;17.90;59.30
22469;DHT22;11401;50.792;4.352;2023-03-23T04:31:58;17.90;59.10
22469;DHT22;11401;50.792;4.352;2023-03-23T04:34:34;18.00;57.60
22469;DHT22;11401;50.792;4.352;2023-03-23T04:37:01;17.90;57.80
22469;DHT22;11401;50.792;4.352;2023-03-23T04:39:29;18.00;58.70
22469;DHT22;11401;50.792;4.352;2023-03-23T04:42:00;18.00;58.60
22469;DHT22;11401;50.792;4.352;2023-03-23T04:44:45;17.90;57.10
22469;DHT22;11401;50.792;4.352;2023-03-23T04:47:23;18.00;58.60
22469;DHT22;11401;50.792;4.352;2023-03-23T04:49:55;18.00;58.90
22469;DHT22;11401;50.792;4.352;2023-03-23T04:52:28;17.90;58.70
22469;DHT22;11401;50.792;4.352;2023-03-23T04:55:00;18.00;58.50
22469;DHT22;11401;50.792;4.352;2023-03-23T04:57:27;17.90;58.20
22469;DHT22;11401;50.792;4.352;2023-03-23T05:00:15;17.90;58.00
22469;DHT22;11401;50.792;4.352;2023-03-23T05:02:48;17.90;57.50
22469;DHT22;11401;50.792;4.352;2023-03-23T05:05:20;17.90;58.50
22469;DHT22;11401;50.792;4.352;2023-03-23T05:07:48;18.00;58.50
22469;DHT22;11401;50.792;4.352;2023-03-23T05:10:17;18.00;58.30
22469;DHT22;11401;50.792;4.352;2023-03-23T05:12:44;18.00;57.50
22469;DHT22;11401;50.792;4.352;2023-03-23T05:15:13;18.10;57.60
22469;DHT22;11401;50.792;4.352;2023-03-23T05:17:40;18.00;56.90
22469;DHT22;11401;50.792;4.352;2023-03-23T05:20:16;18.00;57.50
22469;DHT22;11401;50.792;4.352;2023-03-23T05:23:09;18.00;57.30
22469;DHT22;11401;50.792;4.352;2023-03-23T05:25:36;17.90;57.50
22469;DHT22;11401;50.792;4.352;2023-03-23T05:28:11;17.90;58.20
22469;DHT22;11401;50.792;4.352;2023-03-23T05:30:57;17.70;57.20
22469;DHT22;11401;50.792;4.352;2023-03-23T05:33:29;17.80;58.20
22469;DHT22;11401;50.792;4.352;2023-03-23T05:36:03;17.70;57.70
22469;DHT22;11401;50.792;4.352;2023-03-23T05:38:40;17.70;57.70
22469;DHT22;11401;50.792;4.352;2023-03-23T05:41:15;17.90;58.40
22469;DHT22;11401;50.792;4.352;2023-03-23T05:43:41;17.90;57.80
22469;DHT22;11401;50.792;4.352;2023-03-23T05:46:07;17.90;58.50
22469;DHT22;11401;50.792;4.352;2023-03-23T05:48:34;17.80;58.00
22469;DHT22;11401;50.792;4.352;2023-03-23T05:51:01;18.00;58.70
22469;DHT22;11401;50.792;4.352;2023-03-23T05:53:30;18.00;57.10
22469;DHT22;11401;50.792;4.352;2023-03-23T05:55:59;17.90;57.80
22469;DHT22;11401;50.792;4.352;2023-03-23T05:58:55;17.90;57.90
22469;DHT22;11401;50.792;4.352;2023-03-23T06:01:22;17.90;57.60
22469;DHT22;11401;50.792;4.352;2023-03-23T06:03:49;17.90;57.60
22469;DHT22;11401;50.792;4.352;2023-03-23T06:06:21;18.00;58.30
22469;DHT22;11401;50.792;4.352;2023-03-23T06:08:52;18.00;58.30
22469;DHT22;11401;50.792;4.352;2023-03-23T06:11:28;18.00;58.10
22469;DHT22;11401;50.792;4.352;2023-03-23T06:14:20;18.00;56.90
22469;DHT22;11401;50.792;4.352;2023-03-23T06:16:47;17.90;58.00
22469;DHT22;11401;50.792;4.352;2023-03-23T06:19:14;17.80;57.00
22469;DHT22;11401;50.792;4.352;2023-03-23T06:21:50;17.50;57.70
22469;DHT22;11401;50.792;4.352;2023-03-23T06:24:44;17.30;57.70
22469;DHT22;11401;50.792;4.352;2023-03-23T06:27:13;17.20;59.20
22469;DHT22;11401;50.792;4.352;2023-03-23T06:29:42;17.40;59.00
22469;DHT22;11401;50.792;4.352;2023-03-23T06:32:10;17.40;57.70
22469;DHT22;11401;50.792;4.352;2023-03-23T06:34:39;17.40;57.50
22469;DHT22;11401;50.792;4.352;2023-03-23T06:37:31;17.30;57.70
22469;DHT22;11401;50.792;4.352;2023-03-23T06:40:07;17.20;58.20
22469;DHT22;11401;50.792;4.352;2023-03-23T06:42:37;17.10;59.00
22469;DHT22;11401;50.792;4.352;2023-03-23T06:45:30;17.20;58.90
22469;DHT22;11401;50.792;4.352;2023-03-23T06:48:17;17.20;58.30
22469;DHT22;11401;50.792;4.352;2023-03-23T06:50:45;17.20;58.80
22469;DHT22;11401;50.792;4.352;2023-03-23T06:53:13;17.30;58.90
22469;DHT22;11401;50.792;4.352;2023-03-23T06:55:39;17.30;59.50
22469;DHT22;11401;50.792;4.352;2023-03-23T06:58:08;17.30;59.50
22469;DHT22;11401;50.792;4.352;2023-03-23T07:00:34;17.30;59.10
22469;DHT22;11401;50.792;4.352;2023-03-23T07:03:00;17.20;59.70
22469;DHT22;11401;50.792;4.352;2023-03-23T07:05:27;17.20;58.90
22469;DHT22;11401;50.792;4.352;2023-03-23T07:07:54;17.30;59.10
22469;DHT22;11401;50.792;4.352;2023-03-23T07:10:30;17.20;59.20
22469;DHT22;11401;50.792;4.352;2023-03-23T07:12:57;17.30;59.90
22469;DHT22;11401;50.792;4.352;2023-03-23T15:59:25;18.50;58.80
22469;DHT22;11401;50.792;4.352;2023-03-23T16:01:52;18.40;58.90
22469;DHT22;11401;50.792;4.352;2023-03-23T16:04:20;18.40;58.80
22469;DHT22;11401;50.792;4.352;2023-03-23T16:06:49;18.50;59.00
22469;DHT22;11401;50.792;4.352;2023-03-23T16:09:19;18.50;58.70
22469;DHT22;11401;50.792;4.352;2023-03-23T16:11:46;18.60;58.70
22469;DHT22;11401;50.792;4.352;2023-03-23T16:14:13;18.50;58.80
22469;DHT22;11401;50.792;4.352;2023-03-23T16:16:47;18.60;58.80
22469;DHT22;11401;50.792;4.352;2023-03-23T16:19:17;18.60;58.30
22469;DHT22;11401;50.792;4.352;2023-03-23T16:21:46;18.60;59.20
22469;DHT22;11401;50.792;4.352;2023-03-23T16:24:13;18.60;58.30
22469;DHT22;11401;50.792;4.352;2023-03-23T16:26:40;18.50;57.90
22469;DHT22;11401;50.792;4.352;2023-03-23T16:29:12;18.50;58.20
22469;DHT22;11401;50.792;4.352;2023-03-23T16:31:54;18.50;58.10
22469;DHT22;11401;50.792;4.352;2023-03-23T16:34:21;18.50;58.40
22469;DHT22;11401;50.792;4.352;2023-03-23T16:36:48;18.50;58.10
22469;DHT22;11401;50.792;4.352;2023-03-23T16:39:15;18.60;58.50
22469;DHT22;11401;50.792;4.352;2023-03-23T16:41:44;18.50;57.50
22469;DHT22;11401;50.792;4.352;2023-03-23T16:44:12;18.40;58.50
22469;DHT22;11401;50.792;4.352;2023-03-23T16:46:39;18.50;58.90
22469;DHT22;11401;50.792;4.352;2023-03-23T16:49:06;18.40;58.10
22469;DHT22;11401;50.792;4.352;2023-03-23T16:51:33;18.20;57.80
22469;DHT22;11401;50.792;4.352;2023-03-23T16:54:00;18.20;58.30
22469;DHT22;11401;50.792;4.352;2023-03-23T16:56:27;18.20;58.80
22469;DHT22;11401;50.792;4.352;2023-03-23T16:58:54;18.10;58.20
22469;DHT22;11401;50.792;4.352;2023-03-23T17:01:21;18.20;57.90
22469;DHT22;11401;50.792;4.352;2023-03-23T17:03:48;18.30;58.40
22469;DHT22;11401;50.792;4.352;2023-03-23T17:06:15;18.20;58.50
22469;DHT22;11401;50.792;4.352;2023-03-23T17:08:42;18.20;57.90
22469;DHT22;11401;50.792;4.352;2023-03-23T17:11:10;18.30;58.30
22469;DHT22;11401;50.792;4.352;2023-03-23T17:13:37;18.30;57.90
22469;DHT22;11401;50.792;4.352;2023-03-23T17:16:04;18.40;57.90
22469;DHT22;11401;50.792;4.352;2023-03-23T17:18:32;18.40;57.70
22469;DHT22;11401;50.792;4.352;2023-03-23T17:20:59;18.40;57.40
22469;DHT22;11401;50.792;4.352;2023-03-23T17:23:26;18.40;58.20
22469;DHT22;11401;50.792;4.352;2023-03-23T17:25:53;18.30;57.30
22469;DHT22;11401;50.792;4.352;2023-03-23T17:28:21;18.30;57.40
22469;DHT22;11401;50.792;4.352;2023-03-23T17:30:50;18.30;57.70
22469;DHT22;11401;50.792;4.352;2023-03-23T17:33:18;18.40;57.60
22469;DHT22;11401;50.792;4.352;2023-03-23T17:35:47;18.40;57.50
22469;DHT22;11401;50.792;4.352;2023-03-23T17:38:17;18.40;57.30
22469;DHT22;11401;50.792;4.352;2023-03-23T17:40:44;18.30;57.30
22469;DHT22;11401;50.792;4.352;2023-03-23T17:43:12;18.20;57.60
22469;DHT22;11401;50.792;4.352;2023-03-23T17:45:40;18.30;57.30
22469;DHT22;11401;50.792;4.352;2023-03-23T17:48:10;18.20;57.40
22469;DHT22;11401;50.792;4.352;2023-03-23T17:50:37;18.20;57.40
22469;DHT22;11401;50.792;4.352;2023-03-23T17:53:04;18.20;57.10
22469;DHT22;11401;50.792;4.352;2023-03-23T17:55:31;18.20;57.90
22469;DHT22;11401;50.792;4.352;2023-03-23T17:57:58;18.30;57.90
22469;DHT22;11401;50.792;4.352;2023-03-23T18:00:25;18.30;57.30
22469;DHT22;11401;50.792;4.352;2023-03-23T18:02:52;18.30;57.30
22469;DHT22;11401;50.792;4.352;2023-03-23T18:05:19;18.30;57.30
22469;DHT22;11401;50.792;4.352;2023-03-23T18:07:47;18.30;57.30
22469;DHT22;11401;50.792;4.352;2023-03-23T18:10:14;18.30;56.70
22469;DHT22;11401;50.792;4.352;2023-03-23T18:12:41;18.40;57.90
22469;DHT22;11401;50.792;4.352;2023-03-23T18:15:09;18.30;57.00
22469;DHT22;11401;50.792;4.352;2023-03-23T18:17:37;18.30;56.70
22469;DHT22;11401;50.792;4.352;2023-03-23T18:20:06;18.30;56.70
22469;DHT22;11401;50.792;4.352;2023-03-23T18:22:33;18.40;57.80
22469;DHT22;11401;50.792;4.352;2023-03-23T18:25:00;18.50;57.80
22469;DHT22;11401;50.792;4.352;2023-03-23T18:27:28;18.50;56.80
22469;DHT22;11401;50.792;4.352;2023-03-23T18:29:55;18.50;57.30
22469;DHT22;11401;50.792;4.352;2023-03-23T18:32:22;18.60;57.50
22469;DHT22;11401;50.792;4.352;2023-03-23T18:34:49;18.40;56.10
22469;DHT22;11401;50.792;4.352;2023-03-23T18:37:17;18.30;57.30
22469;DHT22;11401;50.792;4.352;2023-03-23T18:39:44;18.40;57.40
22469;DHT22;11401;50.792;4.352;2023-03-23T18:42:11;18.40;57.80
22469;DHT22;11401;50.792;4.352;2023-03-23T18:44:38;18.40;58.10
22469;DHT22;11401;50.792;4.352;2023-03-23T18:47:05;18.40;58.00
22469;DHT22;11401;50.792;4.352;2023-03-23T18:49:33;18.40;57.50
22469;DHT22;11401;50.792;4.352;2023-03-23T18:52:00;18.50;57.90
22469;DHT22;11401;50.792;4.352;2023-03-23T18:54:28;18.50;58.50
22469;DHT22;11401;50.792;4.352;2023-03-23T18:56:55;18.50;58.00
22469;DHT22;11401;50.792;4.352;2023-03-23T18:59:27;18.50;58.00
22469;DHT22;11401;50.792;4.352;2023-03-23T19:01:56;18.40;57.40
22469;DHT22;11401;50.792;4.352;2023-03-23T19:04:23;18.30;57.90
22469;DHT22;11401;50.792;4.352;2023-03-23T19:06:51;18.40;58.00
22469;DHT22;11401;50.792;4.352;2023-03-23T19:09:18;18.40;58.00
22469;DHT22;11401;50.792;4.352;2023-03-23T19:11:45;18.30;57.90
22469;DHT22;11401;50.792;4.352;2023-03-23T19:14:13;18.30;57.90
22469;DHT22;11401;50.792;4.352;2023-03-23T19:16:40;18.30;58.40
22469;DHT22;11401;50.792;4.352;2023-03-23T19:19:08;18.20;58.10
22469;DHT22;11401;50.792;4.352;2023-03-23T19:21:36;18.10;58.60
22469;DHT22;11401;50.792;4.352;2023-03-23T19:24:06;18.10;59.20
22469;DHT22;11401;50.792;4.352;2023-03-23T19:26:37;18.20;59.50
22469;DHT22;11401;50.792;4.352;2023-03-23T19:29:10;18.20;59.00
22469;DHT22;11401;50.792;4.352;2023-03-23T19:31:40;18.20;58.50
22469;DHT22;11401;50.792;4.352;2023-03-23T19:34:10;18.20;59.20
22469;DHT22;11401;50.792;4.352;2023-03-23T19:36:38;18.20;58.80
22469;DHT22;11401;50.792;4.352;2023-03-23T19:39:06;18.10;60.20
22469;DHT22;11401;50.792;4.352;2023-03-23T19:41:34;18.00;59.20
22469;DHT22;11401;50.792;4.352;2023-03-23T19:44:02;18.00;59.30
22469;DHT22;11401;50.792;4.352;2023-03-23T19:46:30;17.90;59.80
22469;DHT22;11401;50.792;4.352;2023-03-23T19:48:58;18.00;59.60
22469;DHT22;11401;50.792;4.352;2023-03-23T19:51:26;18.10;59.60
22469;DHT22;11401;50.792;4.352;2023-03-23T19:53:55;18.20;59.70
22469;DHT22;11401;50.792;4.352;2023-03-23T19:56:23;18.40;59.50
22469;DHT22;11401;50.792;4.352;2023-03-23T19:58:51;18.00;59.10
22469;DHT22;11401;50.792;4.352;2023-03-23T20:01:18;18.00;59.80
22469;DHT22;11401;50.792;4.352;2023-03-23T20:03:45;17.90;59.20
22469;DHT22;11401;50.792;4.352;2023-03-23T20:06:13;17.70;59.70
22469;DHT22;11401;50.792;4.352;2023-03-23T20:08:43;17.80;60.80
22469;DHT22;11401;50.792;4.352;2023-03-23T20:11:15;17.90;59.30
22469;DHT22;11401;50.792;4.352;2023-03-23T20:13:44;17.90;59.40
22469;DHT22;11401;50.792;4.352;2023-03-23T20:16:11;17.90;59.20
22469;DHT22;11401;50.792;4.352;2023-03-23T20:18:38;18.00;58.90
22469;DHT22;11401;50.792;4.352;2023-03-23T20:21:12;18.00;59.00
22469;DHT22;11401;50.792;4.352;2023-03-23T20:23:40;18.20;59.20
22469;DHT22;11401;50.792;4.352;2023-03-23T20:26:18;18.20;58.70
22469;DHT22;11401;50.792;4.352;2023-03-23T20:28:46;18.30;59.30
22469;DHT22;11401;50.792;4.352;2023-03-23T20:31:16;18.30;58.90
22469;DHT22;11401;50.792;4.352;2023-03-23T20:33:52;18.20;59.20
22469;DHT22;11401;50.792;4.352;2023-03-23T20:36:31;18.30;59.60
22469;DHT22;11401;50.792;4.352;2023-03-23T20:39:04;18.40;59.60
22469;DHT22;11401;50.792;4.352;2023-03-23T20:41:32;18.30;58.90
22469;DHT22;11401;50.792;4.352;2023-03-23T20:44:02;18.00;60.20
22469;DHT22;11401;50.792;4.352;2023-03-23T20:46:30;18.00;60.30
22469;DHT22;11401;50.792;4.352;2023-03-23T20:48:59;17.90;61.60
22469;DHT22;11401;50.792;4.352;2023-03-23T20:51:27;17.80;61.70
22469;DHT22;11401;50.792;4.352;2023-03-23T20:53:54;17.80;61.90
22469;DHT22;11401;50.792;4.352;2023-03-23T20:56:21;18.00;61.40
22469;DHT22;11401;50.792;4.352;2023-03-23T20:58:48;18.00;60.80
22469;DHT22;11401;50.792;4.352;2023-03-23T21:01:15;17.90;61.60
22469;DHT22;11401;50.792;4.352;2023-03-23T21:03:42;17.90;61.50
22469;DHT22;11401;50.792;4.352;2023-03-23T21:06:10;18.00;61.60
22469;DHT22;11401;50.792;4.352;2023-03-23T21:08:38;18.00;61.90
22469;DHT22;11401;50.792;4.352;2023-03-23T21:11:08;17.90;61.90
22469;DHT22;11401;50.792;4.352;2023-03-23T21:13:35;17.90;62.50
22469;DHT22;11401;50.792;4.352;2023-03-23T21:16:03;17.80;61.90
22469;DHT22;11401;50.792;4.352;2023-03-23T21:18:32;17.60;62.90
22469;DHT22;11401;50.792;4.352;2023-03-23T21:21:01;17.50;64.40
22469;DHT22;11401;50.792;4.352;2023-03-23T21:23:28;17.70;64.20
22469;DHT22;11401;50.792;4.352;2023-03-23T21:26:04;17.90;63.60
22469;DHT22;11401;50.792;4.352;2023-03-23T21:28:31;17.90;62.50
22469;DHT22;11401;50.792;4.352;2023-03-23T21:31:03;17.90;63.00
22469;DHT22;11401;50.792;4.352;2023-03-23T21:33:31;17.80;62.90
22469;DHT22;11401;50.792;4.352;2023-03-23T21:35:58;17.80;62.90
22469;DHT22;11401;50.792;4.352;2023-03-23T21:38:27;17.90;63.70
22469;DHT22;11401;50.792;4.352;2023-03-23T21:40:56;17.80;63.50
22469;DHT22;11401;50.792;4.352;2023-03-23T21:43:24;17.80;62.90
22469;DHT22;11401;50.792;4.352;2023-03-23T21:45:57;17.70;63.50
22469;DHT22;11401;50.792;4.352;2023-03-23T21:48:28;17.90;64.10
22469;DHT22;11401;50.792;4.352;2023-03-23T21:50:55;17.80;63.40
22469;DHT22;11401;50.792;4.352;2023-03-23T21:53:22;17.90;63.20
22469;DHT22;11401;50.792;4.352;2023-03-23T21:55:51;18.00;64.10
22469;DHT22;11401;50.792;4.352;2023-03-23T21:58:24;17.70;62.80
22469;DHT22;11401;50.792;4.352;2023-03-23T22:00:54;17.60;64.00
22469;DHT22;11401;50.792;4.352;2023-03-23T22:03:22;17.50;65.00
22469;DHT22;11401;50.792;4.352;2023-03-23T22:05:51;17.40;64.60
22469;DHT22;11401;50.792;4.352;2023-03-23T22:08:25;17.60;65.60
22469;DHT22;11401;50.792;4.352;2023-03-23T22:11:03;17.50;64.70
22469;DHT22;11401;50.792;4.352;2023-03-23T22:13:32;17.70;64.60
22469;DHT22;11401;50.792;4.352;2023-03-23T22:16:01;17.80;64.00
22469;DHT22;11401;50.792;4.352;2023-03-23T22:18:30;17.90;64.00
22469;DHT22;11401;50.792;4.352;2023-03-23T22:20:59;17.90;63.80
22469;DHT22;11401;50.792;4.352;2023-03-23T22:23:26;17.70;63.30
22469;DHT22;11401;50.792;4.352;2023-03-23T22:25:54;17.60;63.90
22469;DHT22;11401;50.792;4.352;2023-03-23T22:28:23;17.60;65.30
22469;DHT22;11401;50.792;4.352;2023-03-23T22:31:00;17.80;65.80
22469;DHT22;11401;50.792;4.352;2023-03-23T22:33:29;17.90;64.10
22469;DHT22;11401;50.792;4.352;2023-03-23T22:35:56;17.90;64.20
22469;DHT22;11401;50.792;4.352;2023-03-23T22:38:23;17.80;63.20
22469;DHT22;11401;50.792;4.352;2023-03-23T22:40:57;17.80;64.30
22469;DHT22;11401;50.792;4.352;2023-03-23T22:43:24;17.70;63.80
22469;DHT22;11401;50.792;4.352;2023-03-23T22:45:53;17.80;64.90
22469;DHT22;11401;50.792;4.352;2023-03-23T22:48:23;17.90;64.80
22469;DHT22;11401;50.792;4.352;2023-03-23T22:50:51;17.70;65.00
22469;DHT22;11401;50.792;4.352;2023-03-23T22:53:18;17.70;65.20
22469;DHT22;11401;50.792;4.352;2023-03-23T22:55:48;17.70;65.00
22469;DHT22;11401;50.792;4.352;2023-03-23T22:58:16;17.80;64.40
22469;DHT22;11401;50.792;4.352;2023-03-23T23:00:46;17.80;64.40
22469;DHT22;11401;50.792;4.352;2023-03-23T23:03:14;17.80;63.80
22469;DHT22;11401;50.792;4.352;2023-03-23T23:05:44;17.90;63.80
22469;DHT22;11401;50.792;4.352;2023-03-23T23:08:12;17.70;64.10
22469;DHT22;11401;50.792;4.352;2023-03-23T23:10:44;17.80;65.00
22469;DHT22;11401;50.792;4.352;2023-03-23T23:13:12;17.90;64.20
22469;DHT22;11401;50.792;4.352;2023-03-23T23:15:42;17.80;63.70
22469;DHT22;11401;50.792;4.352;2023-03-23T23:18:09;17.90;64.50
22469;DHT22;11401;50.792;4.352;2023-03-23T23:20:37;17.80;64.10
22469;DHT22;11401;50.792;4.352;2023-03-23T23:23:05;17.80;63.90
22469;DHT22;11401;50.792;4.352;2023-03-23T23:25:33;17.90;64.00
22469;DHT22;11401;50.792;4.352;2023-03-23T23:28:01;18.00;64.00
22469;DHT22;11401;50.792;4.352;2023-03-23T23:30:29;18.00;63.80
22469;DHT22;11401;50.792;4.352;2023-03-23T23:32:56;17.90;63.70
22469;DHT22;11401;50.792;4.352;2023-03-23T23:35:24;18.00;64.60
22469;DHT22;11401;50.792;4.352;2023-03-23T23:37:52;17.90;64.00
22469;DHT22;11401;50.792;4.352;2023-03-23T23:40:19;17.80;64.20
22469;DHT22;11401;50.792;4.352;2023-03-23T23:42:49;17.70;64.50
22469;DHT22;11401;50.792;4.352;2023-03-23T23:45:17;17.60;65.20
22469;DHT22;11401;50.792;4.352;2023-03-23T23:47:44;17.70;65.60
22469;DHT22;11401;50.792;4.352;2023-03-23T23:50:13;17.70;65.30
22469;DHT22;11401;50.792;4.352;2023-03-23T23:52:40;17.80;64.90
22469;DHT22;11401;50.792;4.352;2023-03-23T23:55:10;17.80;64.60
22469;DHT22;11401;50.792;4.352;2023-03-23T23:57:37;17.80;64.90
